Time;durP1;ratioP1;P1;durP2;ratioP2;P2;SDS_P1;SDS_P2;PMS_P1;PMS_P2;Temp;Humidity;BMP_temperature;BMP_pressure;BME280_temperature;BME280_humidity;BME280_pressure;Samples;Min_cycle;Max_cycle;Signal;HPM_P1;HPM_P2
2023/01/03 00:01:42;;;;;;;2.05;0.52;;;5.20;99.90;;;;;;5001736;28;20655;-84
2023/01/03 00:04:11;;;;;;;1.15;0.88;;;5.30;99.90;;;;;;5006661;28;20128;-85
2023/01/03 00:06:42;;;;;;;1.10;1.00;;;5.30;99.90;;;;;;5005190;28;20042;-85
2023/01/03 00:09:13;;;;;;;1.60;0.90;;;5.30;99.90;;;;;;4987499;28;20048;-85
2023/01/03 00:14:31;;;;;;;3.20;1.98;;;5.30;99.90;;;;;;5004113;28;20057;-85
2023/01/03 00:17:02;;;;;;;3.33;1.00;;;5.30;99.90;;;;;;5005543;28;20056;-85
2023/01/03 00:19:33;;;;;;;2.22;1.08;;;5.30;99.90;;;;;;5004152;28;20040;-85
2023/01/03 00:22:06;;;;;;;6.35;1.25;;;5.30;99.90;;;;;;5004576;28;20096;-85
2023/01/03 00:24:32;;;;;;;1.02;0.82;;;5.40;99.90;;;;;;5005387;28;20045;-85
2023/01/03 00:26:58;;;;;;;1.20;1.02;;;5.30;99.90;;;;;;5004739;28;20504;-84
2023/01/03 00:29:24;;;;;;;1.60;1.17;;;5.30;99.90;;;;;;4987656;28;20034;-85
2023/01/03 00:31:49;;;;;;;2.40;2.25;;;5.40;99.90;;;;;;4988029;28;20107;-85
2023/01/03 00:34:22;;;;;;;1.52;1.13;;;5.40;99.90;;;;;;4989446;28;20073;-85
2023/01/03 00:36:51;;;;;;;2.45;1.20;;;5.40;99.90;;;;;;4988051;28;20042;-85
2023/01/03 00:39:16;;;;;;;2.17;1.00;;;5.40;99.90;;;;;;5005417;28;20128;-84
2023/01/03 00:41:45;;;;;;;3.13;0.85;;;5.40;99.90;;;;;;4988147;28;20157;-84
2023/01/03 00:44:11;;;;;;;2.65;1.38;;;5.40;99.90;;;;;;5005614;28;20069;-85
2023/01/03 00:46:36;;;;;;;1.75;1.40;;;5.40;99.90;;;;;;5004490;28;20073;-84
2023/01/03 00:49:03;;;;;;;3.45;1.60;;;5.50;99.90;;;;;;5020803;28;20042;-85
2023/01/03 00:51:34;;;;;;;3.92;1.73;;;5.40;99.90;;;;;;5019365;28;20053;-84
2023/01/03 00:54:01;;;;;;;2.20;1.30;;;5.40;99.90;;;;;;4982424;28;20735;-85
2023/01/03 00:56:34;;;;;;;5.80;1.50;;;5.40;99.90;;;;;;4909594;28;20510;-85
2023/01/03 00:59:03;;;;;;;2.20;1.55;;;5.50;99.90;;;;;;4926619;28;20047;-84
2023/01/03 01:01:41;;;;;;;9.35;2.85;;;5.50;99.90;;;;;;4911566;28;20050;-85
2023/01/03 01:04:22;;;;;;;4.85;1.92;;;5.50;99.90;;;;;;4943808;29;20047;-85
2023/01/03 01:06:54;;;;;;;2.63;1.85;;;5.50;99.90;;;;;;4943392;29;20039;-84
2023/01/03 01:09:26;;;;;;;2.10;1.35;;;5.50;99.90;;;;;;4927950;28;20051;-85
2023/01/03 01:11:52;;;;;;;;;;;5.50;99.90;;;;;;4945543;28;20055;-84
2023/01/03 01:14:23;;;;;;;2.85;2.25;;;5.50;99.90;;;;;;4945670;28;19930;-85
2023/01/03 01:16:57;;;;;;;4.13;2.23;;;5.50;99.90;;;;;;4991830;28;20507;-85
2023/01/03 01:19:26;;;;;;;5.90;1.50;;;5.50;99.90;;;;;;4927395;29;20317;-85
2023/01/03 01:21:53;;;;;;;1.98;1.13;;;5.60;99.90;;;;;;4943320;29;20092;-85
2023/01/03 01:24:22;;;;;;;2.88;1.65;;;5.50;99.90;;;;;;4927151;29;20046;-86
2023/01/03 01:26:53;;;;;;;1.98;1.15;;;5.50;99.90;;;;;;4927703;29;20159;-84
2023/01/03 01:29:28;;;;;;;2.30;1.30;;;5.60;99.90;;;;;;4927481;28;20051;-85
2023/01/03 01:31:54;;;;;;;3.08;1.38;;;5.60;99.90;;;;;;4944397;29;20057;-84
2023/01/03 01:34:23;;;;;;;3.05;0.80;;;5.50;99.90;;;;;;4943528;28;20525;-86
2023/01/03 01:36:51;;;;;;;2.35;0.80;;;5.50;99.90;;;;;;4943709;29;20114;-85
2023/01/03 01:39:27;;;;;;;2.22;0.85;;;5.60;99.90;;;;;;4944055;29;20046;-84
2023/01/03 01:44:56;;;;;;;3.78;1.15;;;5.50;99.90;;;;;;4931327;29;20051;-84
2023/01/03 01:47:58;;;;;;;4.22;0.60;;;5.50;99.90;;;;;;4944443;28;20039;-84
2023/01/03 01:50:40;;;;;;;2.13;0.90;;;5.40;99.90;;;;;;4925904;28;20055;-85
2023/01/03 01:53:27;;;;;;;2.70;1.50;;;5.40;99.90;;;;;;4941688;28;20094;-85
2023/01/03 01:56:14;;;;;;;0.68;0.52;;;5.30;99.90;;;;;;4934518;28;20055;-85
2023/01/03 01:58:42;;;;;;;1.40;0.82;;;5.40;99.90;;;;;;4928294;29;20035;-85
2023/01/03 02:01:13;;;;;;;1.92;1.25;;;5.30;99.90;;;;;;4930083;28;20043;-85
2023/01/03 02:03:41;;;;;;;1.33;0.80;;;5.20;99.90;;;;;;4915378;28;20477;-84
2023/01/03 02:06:09;;;;;;;0.95;0.63;;;5.20;99.90;;;;;;4946563;28;20127;-84
2023/01/03 02:08:35;;;;;;;1.73;1.33;;;5.10;99.90;;;;;;4929583;29;20097;-85
2023/01/03 02:11:26;;;;;;;4.28;1.92;;;5.10;99.90;;;;;;4947375;28;20085;-84
2023/01/03 02:14:14;;;;;;;2.28;1.50;;;5.00;99.90;;;;;;4930307;28;20047;-85
2023/01/03 02:16:51;;;;;;;3.33;1.63;;;4.90;99.90;;;;;;4914492;28;20062;-85
2023/01/03 02:20:07;;;;;;;4.15;2.35;;;4.80;99.90;;;;;;4930404;28;20062;-84
2023/01/03 02:23:07;;;;;;;3.75;1.05;;;4.70;99.90;;;;;;4912952;28;20061;-84
2023/01/03 02:26:15;;;;;;;3.92;1.30;;;4.60;99.90;;;;;;4947609;28;20572;-84
2023/01/03 02:28:49;;;;;;;1.95;1.45;;;4.50;99.90;;;;;;4943435;28;20087;-84
2023/01/03 02:31:44;;;;;;;8.18;2.47;;;4.40;99.90;;;;;;4912533;29;20134;-84
2023/01/03 02:34:38;;;;;;;4.20;1.27;;;4.40;99.90;;;;;;4911188;29;20051;-85
2023/01/03 02:37:11;;;;;;;2.75;1.50;;;4.30;99.90;;;;;;4927283;28;20059;-84
2023/01/03 02:40:00;;;;;;;1.02;0.85;;;4.30;99.90;;;;;;4929723;29;20055;-84
2023/01/03 02:45:31;;;;;;;1.42;0.95;;;4.20;99.90;;;;;;4947720;28;20051;-84
2023/01/03 02:48:16;;;;;;;3.83;1.20;;;4.10;99.90;;;;;;4930683;29;20074;-84
2023/01/03 02:50:47;;;;;;;3.53;2.05;;;4.10;99.90;;;;;;4929023;28;20302;-85
2023/01/03 02:53:19;;;;;;;3.85;1.38;;;4.00;99.90;;;;;;4947078;28;20055;-84
2023/01/03 02:55:56;;;;;;;3.08;1.15;;;4.00;99.90;;;;;;4946454;29;20046;-84
2023/01/03 03:01:11;;;;;;;17.25;1.80;;;4.00;99.90;;;;;;4931392;26;20428;-85
2023/01/03 03:03:41;;;;;;;2.63;1.55;;;3.90;99.90;;;;;;4996828;28;20046;-85
2023/01/03 03:06:29;;;;;;;6.50;2.13;;;3.90;99.90;;;;;;4981488;28;20042;-85
2023/01/03 03:08:55;;;;;;;3.90;1.10;;;3.90;99.90;;;;;;5007682;28;20107;-85
2023/01/03 03:14:17;;;;;;;2.50;1.55;;;3.80;99.90;;;;;;4988684;28;20050;-84
2023/01/03 03:16:47;;;;;;;1.73;1.20;;;3.80;99.90;;;;;;4988365;28;20504;-84
2023/01/03 03:25:43;;;;;;;8.63;1.48;;;3.70;99.90;;;;;;4994541;28;20089;-84
2023/01/03 03:28:33;;;;;;;4.57;2.35;;;3.70;99.90;;;;;;5008386;28;20121;-84
2023/01/03 03:31:32;;;;;;;4.00;1.90;;;3.70;99.90;;;;;;4987649;28;20081;-84
2023/01/03 03:34:06;;;;;;;1.90;1.00;;;3.70;99.90;;;;;;5008208;28;20049;-84
2023/01/03 03:37:03;;;;;;;3.05;1.20;;;3.70;99.90;;;;;;5007193;28;20052;-85
2023/01/03 03:45:53;;;;;;;3.65;1.42;;;3.70;99.90;;;;;;4992109;28;20403;-85
2023/01/03 03:48:23;;;;;;;4.13;1.25;;;3.70;99.90;;;;;;4992466;28;20471;-85
2023/01/03 03:51:11;;;;;;;7.30;1.52;;;3.70;99.90;;;;;;5002636;28;20130;-85
2023/01/03 03:53:38;;;;;;;1.88;1.25;;;3.70;99.90;;;;;;4992502;28;20056;-84
2023/01/03 03:56:14;;;;;;;2.03;1.48;;;3.80;99.90;;;;;;5006800;28;20054;-85
2023/01/03 03:58:42;;;;;;;1.02;0.77;;;3.70;99.90;;;;;;5007713;28;20038;-84
2023/01/03 04:01:15;;;;;;;3.00;1.58;;;3.70;99.90;;;;;;5007156;28;20093;-84
2023/01/03 04:03:43;;;;;;;3.05;1.50;;;3.70;99.90;;;;;;5002440;28;20064;-84
2023/01/03 04:06:14;;;;;;;5.88;1.35;;;3.70;99.90;;;;;;4985396;28;20484;-84
2023/01/03 04:08:40;;;;;;;3.67;1.48;;;3.70;99.90;;;;;;4988379;28;20091;-85
2023/01/03 04:11:06;;;;;;;2.97;2.05;;;3.80;99.90;;;;;;4970787;28;20042;-84
2023/01/03 04:13:43;;;;;;;2.03;1.27;;;3.80;99.90;;;;;;4991379;28;20077;-84
2023/01/03 04:16:09;;;;;;;2.78;2.25;;;3.80;99.90;;;;;;5005853;28;20516;-85
2023/01/03 04:18:37;;;;;;;1.98;1.83;;;3.80;99.90;;;;;;5003931;28;20082;-84
2023/01/03 04:21:03;;;;;;;6.93;2.45;;;3.80;99.90;;;;;;4986816;28;20046;-85
2023/01/03 04:23:31;;;;;;;2.65;1.88;;;3.80;99.90;;;;;;5007290;28;20046;-85
2023/01/03 04:25:57;;;;;;;2.95;1.77;;;3.80;99.90;;;;;;5005693;28;20060;-84
2023/01/03 04:28:25;;;;;;;2.42;1.10;;;3.80;99.90;;;;;;4986834;28;20469;-85
2023/01/03 04:30:51;;;;;;;3.80;2.00;;;3.90;99.90;;;;;;4997780;28;20173;-85
2023/01/03 04:33:16;;;;;;;4.65;2.20;;;3.80;99.90;;;;;;4988734;28;20480;-84
2023/01/03 04:35:42;;;;;;;3.00;2.33;;;3.80;99.90;;;;;;5001698;28;20060;-85
2023/01/03 04:38:08;;;;;;;2.38;1.52;;;3.80;99.90;;;;;;4996498;28;20061;-84
2023/01/03 04:40:35;;;;;;;2.55;1.60;;;3.80;99.90;;;;;;4973479;28;20050;-84
2023/01/03 04:45:47;;;;;;;17.35;2.90;;;3.80;99.90;;;;;;5007572;28;20042;-84
2023/01/03 04:48:13;;;;;;;6.22;2.15;;;3.80;99.90;;;;;;5005660;28;20563;-84
2023/01/03 04:50:47;;;;;;;2.05;1.92;;;3.90;99.90;;;;;;4988113;28;20050;-84
2023/01/03 04:53:13;;;;;;;2.35;2.10;;;3.90;99.90;;;;;;5005487;28;20041;-84
2023/01/03 04:55:45;;;;;;;4.20;2.60;;;4.00;99.90;;;;;;5006366;28;20569;-84
2023/01/03 04:58:11;;;;;;;6.85;3.00;;;4.00;99.90;;;;;;5006380;28;20179;-84
2023/01/03 05:00:38;;;;;;;11.95;2.95;;;4.00;99.90;;;;;;5011328;28;20054;-85
2023/01/03 05:03:03;;;;;;;2.85;2.45;;;4.00;99.90;;;;;;4987927;28;20050;-84
2023/01/03 05:05:31;;;;;;;4.38;1.77;;;3.90;99.90;;;;;;5002500;28;20045;-84
2023/01/03 05:07:57;;;;;;;3.10;2.67;;;4.00;99.90;;;;;;4990373;28;20488;-85
2023/01/03 05:10:28;;;;;;;3.25;2.45;;;4.00;99.90;;;;;;5006716;28;20128;-85
2023/01/03 05:12:59;;;;;;;5.72;2.83;;;4.00;99.90;;;;;;5004781;28;20511;-85
2023/01/03 05:15:30;;;;;;;3.70;2.80;;;4.00;99.90;;;;;;5001869;28;20038;-84
2023/01/03 05:17:56;;;;;;;3.30;2.85;;;4.00;99.90;;;;;;4999399;28;20081;-84
2023/01/03 05:26:04;;;;;;;2.85;2.05;;;4.00;99.90;;;;;;5006647;28;20046;-85
2023/01/03 05:28:30;;;;;;;3.38;2.45;;;4.00;99.90;;;;;;4987298;28;20046;-84
2023/01/03 05:31:01;;;;;;;5.13;2.50;;;4.00;99.90;;;;;;4986815;28;20043;-84
2023/01/03 05:33:30;;;;;;;3.55;2.40;;;4.00;99.90;;;;;;5001283;28;20535;-84
2023/01/03 05:35:56;;;;;;;3.85;2.10;;;3.90;99.90;;;;;;4984704;28;20057;-84
2023/01/03 05:38:24;;;;;;;3.63;2.03;;;3.90;99.90;;;;;;5000733;28;20039;-85
2023/01/03 05:40:50;;;;;;;3.15;2.70;;;3.80;99.90;;;;;;4986573;28;20082;-84
2023/01/03 05:43:16;;;;;;;6.63;3.83;;;3.80;99.90;;;;;;4994475;28;20302;-85
2023/01/03 05:45:44;;;;;;;3.90;2.65;;;3.70;99.90;;;;;;4997692;28;20056;-84
2023/01/03 05:48:10;;;;;;;4.03;2.72;;;3.70;99.90;;;;;;5004141;28;20132;-84
2023/01/03 05:50:36;;;;;;;3.47;2.45;;;3.70;99.90;;;;;;4973224;28;20121;-84
2023/01/03 05:53:04;;;;;;;5.88;2.25;;;3.60;99.90;;;;;;4983793;28;20477;-84
2023/01/03 05:55:30;;;;;;;6.28;4.15;;;3.60;99.90;;;;;;5000787;28;20034;-85
2023/01/03 05:57:55;;;;;;;5.22;2.45;;;3.50;99.90;;;;;;5004642;28;20038;-84
2023/01/03 06:00:21;;;;;;;2.63;1.63;;;3.50;99.90;;;;;;4973482;28;20144;-84
2023/01/03 06:02:47;;;;;;;7.47;2.38;;;3.50;99.90;;;;;;4986037;28;20085;-84
2023/01/03 06:05:12;;;;;;;7.10;1.83;;;3.50;99.90;;;;;;4985503;28;20134;-84
2023/01/03 06:07:38;;;;;;;7.03;3.22;;;3.40;99.90;;;;;;4977130;28;20133;-84
2023/01/03 06:10:05;;;;;;;8.13;2.38;;;3.40;99.90;;;;;;4995894;28;20038;-84
2023/01/03 06:12:31;;;;;;;3.40;2.90;;;3.40;99.90;;;;;;4991900;28;20052;-84
2023/01/03 06:15:04;;;;;;;2.45;2.25;;;3.30;99.90;;;;;;4985095;28;20054;-84
2023/01/03 06:20:14;;;;;;;3.65;1.98;;;3.30;99.90;;;;;;4988696;28;20114;-84
2023/01/03 06:22:39;;;;;;;2.95;2.60;;;3.30;99.90;;;;;;4999706;28;20085;-84
2023/01/03 06:25:05;;;;;;;3.97;2.28;;;3.20;99.90;;;;;;4993680;28;20122;-84
2023/01/03 06:27:31;;;;;;;4.22;2.03;;;3.10;99.90;;;;;;4997804;28;20038;-83
2023/01/03 06:29:57;;;;;;;4.95;2.20;;;3.10;99.90;;;;;;5001073;28;20042;-84
2023/01/03 06:32:23;;;;;;;2.42;2.13;;;3.10;99.90;;;;;;5003728;28;20042;-85
2023/01/03 06:34:52;;;;;;;5.60;2.05;;;3.10;99.90;;;;;;5002399;28;20069;-85
2023/01/03 06:37:17;;;;;;;4.43;3.13;;;3.10;99.90;;;;;;4993843;28;20050;-84
2023/01/03 06:39:44;;;;;;;5.07;3.17;;;3.10;99.90;;;;;;4969138;28;20100;-85
2023/01/03 06:53:19;;;;;;;6.85;4.95;;;3.20;99.90;;;;;;5008861;28;20046;-84
2023/01/03 06:55:45;;;;;;;15.57;5.18;;;3.10;99.90;;;;;;5007703;28;20042;-84
2023/01/03 06:58:12;;;;;;;6.05;4.80;;;3.10;99.90;;;;;;5008708;28;20049;-85
2023/01/03 07:00:40;;;;;;;11.88;5.35;;;3.00;99.90;;;;;;5007530;28;20132;-84
2023/01/03 07:03:06;;;;;;;11.55;6.40;;;3.00;99.90;;;;;;5002061;28;20046;-83
2023/01/03 07:05:32;;;;;;;8.25;6.28;;;3.00;99.90;;;;;;4992515;28;20517;-82
2023/01/03 07:07:57;;;;;;;8.05;7.25;;;3.00;99.90;;;;;;4996133;28;20061;-83
2023/01/03 07:10:23;;;;;;;10.50;6.20;;;3.00;99.90;;;;;;5008085;28;20056;-84
2023/01/03 07:15:33;;;;;;;11.18;6.72;;;2.90;99.90;;;;;;5002541;28;20100;-82
2023/01/03 07:17:58;;;;;;;10.60;7.03;;;2.90;99.90;;;;;;4987310;28;20054;-82
2023/01/03 07:20:24;;;;;;;10.13;7.22;;;2.90;99.90;;;;;;5003005;28;20125;-82
2023/01/03 07:22:51;;;;;;;13.77;8.55;;;2.90;99.90;;;;;;5006967;28;20046;-82
2023/01/03 07:25:16;;;;;;;9.90;6.80;;;2.80;99.90;;;;;;5007397;28;20046;-81
2023/01/03 07:27:42;;;;;;;14.65;8.80;;;2.80;99.90;;;;;;4997965;28;20403;-81
2023/01/03 07:30:08;;;;;;;11.35;6.65;;;2.80;99.90;;;;;;4985989;28;20046;-80
2023/01/03 07:32:34;;;;;;;13.23;7.65;;;2.70;99.90;;;;;;4987296;28;20039;-82
2023/01/03 07:35:01;;;;;;;10.90;8.10;;;2.70;99.90;;;;;;4985561;28;20223;-82
2023/01/03 07:37:26;;;;;;;9.25;7.35;;;2.70;99.90;;;;;;4985655;28;20046;-82
2023/01/03 07:39:52;;;;;;;9.02;6.22;;;2.70;99.90;;;;;;4986199;28;20042;-82
2023/01/03 07:45:02;;;;;;;12.70;7.55;;;2.60;99.90;;;;;;5005723;28;20084;-82
2023/01/03 07:47:27;;;;;;;15.25;8.20;;;2.60;99.90;;;;;;5002036;28;20121;-82
2023/01/03 07:49:53;;;;;;;13.85;8.43;;;2.60;99.90;;;;;;4985225;28;20130;-82
2023/01/03 07:52:19;;;;;;;14.93;8.13;;;2.60;99.90;;;;;;4986296;28;20418;-83
2023/01/03 07:54:44;;;;;;;11.35;8.80;;;2.70;99.90;;;;;;4986662;28;20502;-82
2023/01/03 07:57:10;;;;;;;16.60;9.10;;;2.60;99.90;;;;;;4993735;28;20038;-82
2023/01/03 07:59:35;;;;;;;12.05;8.52;;;2.60;99.90;;;;;;4985498;28;20142;-82
2023/01/03 08:02:01;;;;;;;10.43;8.27;;;2.60;99.90;;;;;;4986666;28;20046;-82
2023/01/03 08:04:27;;;;;;;13.05;8.40;;;2.60;99.90;;;;;;4999196;28;20045;-82
2023/01/03 08:06:52;;;;;;;12.53;8.93;;;2.60;99.90;;;;;;4985675;28;20042;-83
2023/01/03 08:14:46;;;;;;;19.17;10.27;;;2.70;99.90;;;;;;5001407;28;20104;-82
2023/01/03 08:17:12;;;;;;;11.67;8.50;;;2.70;99.90;;;;;;5003561;28;20038;-82
2023/01/03 08:19:37;;;;;;;14.98;11.98;;;2.70;99.90;;;;;;5001917;28;20053;-82
2023/01/03 08:22:03;;;;;;;15.90;9.35;;;2.70;99.90;;;;;;4996140;28;20042;-82
2023/01/03 08:24:28;;;;;;;13.67;11.23;;;2.70;99.90;;;;;;4985921;28;20444;-82
2023/01/03 08:26:54;;;;;;;18.93;10.77;;;2.70;99.90;;;;;;4985372;28;20042;-82
2023/01/03 08:29:19;;;;;;;19.08;11.25;;;2.70;99.90;;;;;;4993456;28;20033;-82
2023/01/03 08:31:53;;;;;;;19.25;12.32;;;2.80;99.90;;;;;;5005368;28;20042;-81
2023/01/03 08:34:19;;;;;;;15.93;11.38;;;2.80;99.90;;;;;;5004529;28;20089;-82
2023/01/03 08:36:53;;;;;;;14.87;11.67;;;2.70;99.90;;;;;;5004968;28;20049;-82
2023/01/03 08:39:25;;;;;;;19.98;13.15;;;2.70;99.90;;;;;;5004976;28;20187;-83
2023/01/03 08:41:53;;;;;;;;;;;2.80;99.90;;;;;;4992156;28;20043;-82
2023/01/03 08:44:19;;;;;;;35.03;17.00;;;2.80;99.90;;;;;;4987019;28;20281;-83
2023/01/03 08:46:48;;;;;;;40.87;17.80;;;2.80;99.90;;;;;;4985762;28;20117;-82
2023/01/03 08:49:14;;;;;;;48.60;16.42;;;2.80;99.90;;;;;;5001952;28;20033;-82
2023/01/03 08:51:40;;;;;;;128.53;25.77;;;2.80;99.90;;;;;;4996040;28;20168;-82
2023/01/03 08:54:06;;;;;;;54.47;18.45;;;2.80;99.90;;;;;;5010781;28;20108;-82
2023/01/03 08:56:33;;;;;;;65.72;18.05;;;2.80;99.90;;;;;;5024825;28;20045;-82
2023/01/03 08:58:59;;;;;;;32.35;12.25;;;2.80;99.90;;;;;;5003664;28;20038;-82
2023/01/03 09:01:24;;;;;;;65.35;19.23;;;2.80;99.90;;;;;;5002316;28;20068;-82
2023/01/03 09:03:50;;;;;;;62.90;16.63;;;2.80;99.90;;;;;;5004654;28;20068;-82
2023/01/03 09:06:16;;;;;;;50.55;12.10;;;2.80;99.90;;;;;;5002860;28;20045;-82
2023/01/03 09:08:41;;;;;;;58.55;14.32;;;2.70;99.90;;;;;;4985741;28;20104;-82
2023/01/03 09:11:08;;;;;;;28.07;11.07;;;2.80;99.90;;;;;;4991438;28;20046;-82
2023/01/03 09:13:34;;;;;;;76.10;15.63;;;2.80;99.90;;;;;;4992843;28;20377;-83
2023/01/03 09:16:05;;;;;;;31.53;11.83;;;2.80;99.90;;;;;;4997833;28;20049;-82
2023/01/03 09:18:31;;;;;;;26.87;12.43;;;2.80;99.90;;;;;;5002746;28;20052;-82
2023/01/03 09:20:56;;;;;;;26.53;12.53;;;2.90;99.90;;;;;;4997369;28;20042;-82
2023/01/03 09:23:22;;;;;;;24.27;12.40;;;2.90;99.90;;;;;;5000003;28;20038;-82
2023/01/03 09:25:48;;;;;;;43.17;12.60;;;3.00;99.90;;;;;;5004448;28;20053;-81
2023/01/03 09:28:13;;;;;;;58.83;12.50;;;3.00;99.90;;;;;;4999925;28;20370;-81
2023/01/03 09:30:39;;;;;;;62.20;16.50;;;3.10;99.90;;;;;;4993405;28;20049;-82
2023/01/03 09:33:05;;;;;;;26.37;12.20;;;3.10;99.90;;;;;;4999716;28;20121;-83
2023/01/03 09:35:34;;;;;;;53.13;19.40;;;3.10;99.90;;;;;;5001935;28;20072;-82
2023/01/03 09:38:00;;;;;;;50.92;12.85;;;3.20;99.90;;;;;;5001502;28;20034;-82
2023/01/03 09:40:26;;;;;;;21.30;12.63;;;3.10;99.90;;;;;;5005712;28;20061;-81
2023/01/03 09:45:38;;;;;;;22.27;12.65;;;3.20;99.90;;;;;;5006057;28;20050;-81
2023/01/03 09:48:05;;;;;;;29.77;15.13;;;3.30;99.90;;;;;;5004115;28;20050;-80
2023/01/03 09:50:36;;;;;;;38.63;14.68;;;3.30;99.90;;;;;;5004735;28;20176;-81
2023/01/03 10:04:36;;;;;;;33.15;16.65;;;3.50;99.90;;;;;;5002528;28;20264;-81
2023/01/03 10:07:05;;;;;;;61.27;17.30;;;3.50;99.90;;;;;;5003208;28;20034;-81
2023/01/03 10:10:02;;;;;;;24.45;13.52;;;3.50;99.90;;;;;;5005274;28;20046;-82
2023/01/03 10:12:40;;;;;;;42.80;18.08;;;3.50;99.90;;;;;;4997247;28;20076;-82
2023/01/03 10:15:12;;;;;;;22.23;15.82;;;3.50;99.90;;;;;;4985488;28;20054;-81
2023/01/03 10:17:46;;;;;;;25.73;15.48;;;3.60;99.90;;;;;;4989922;28;20053;-81
2023/01/03 10:20:22;;;;;;;35.63;17.77;;;3.60;99.90;;;;;;4988840;28;20046;-81
2023/01/03 10:22:50;;;;;;;31.13;16.77;;;3.70;99.90;;;;;;5007816;28;20492;-80
2023/01/03 10:25:21;;;;;;;34.53;21.63;;;3.70;99.90;;;;;;5008101;28;20064;-80
2023/01/03 10:28:14;;;;;;;33.75;20.15;;;3.80;99.90;;;;;;5008116;28;20046;-82
2023/01/03 10:31:02;;;;;;;46.45;24.52;;;3.80;99.90;;;;;;4995664;28;20113;-81
2023/01/03 10:33:32;;;;;;;44.47;22.63;;;3.90;99.90;;;;;;4998478;28;20445;-81
2023/01/03 10:35:57;;;;;;;50.35;23.65;;;3.90;99.90;;;;;;5006139;28;20030;-82
2023/01/03 10:38:24;;;;;;;47.08;24.20;;;4.00;99.90;;;;;;5005176;28;20400;-83
2023/01/03 10:41:01;;;;;;;42.50;25.27;;;4.00;99.90;;;;;;5019147;28;20042;-80
2023/01/03 10:43:29;;;;;;;36.92;23.73;;;4.10;99.90;;;;;;5003704;28;20528;-81
2023/01/03 10:45:58;;;;;;;56.25;28.08;;;4.10;99.90;;;;;;5007949;28;20069;-81
2023/01/03 10:48:33;;;;;;;58.78;30.77;;;4.10;99.90;;;;;;4993098;28;20056;-81
2023/01/03 10:50:59;;;;;;;58.55;29.88;;;4.10;99.90;;;;;;4987823;28;20038;-80
2023/01/03 10:53:25;;;;;;;50.17;26.48;;;4.20;99.90;;;;;;5003355;28;20030;-81
2023/01/03 10:55:53;;;;;;;69.80;35.97;;;4.20;99.90;;;;;;5006556;28;20726;-79
2023/01/03 10:58:20;;;;;;;58.05;30.50;;;4.20;99.90;;;;;;5006948;28;20053;-82
2023/01/03 11:00:46;;;;;;;71.07;32.55;;;4.20;99.90;;;;;;5000145;28;20050;-82
2023/01/03 11:03:17;;;;;;;73.07;39.08;;;4.30;99.90;;;;;;5006487;28;20116;-80
2023/01/03 11:05:45;;;;;;;81.07;38.55;;;4.40;99.90;;;;;;5000272;28;20046;-80
2023/01/03 11:08:33;;;;;;;79.00;37.45;;;4.40;99.90;;;;;;4998590;28;20721;-79
2023/01/03 11:10:59;;;;;;;73.25;36.38;;;4.50;99.90;;;;;;4999030;28;20038;-79
2023/01/03 11:13:38;;;;;;;87.90;38.38;;;4.50;99.90;;;;;;5002382;28;20041;-80
2023/01/03 11:16:13;;;;;;;84.15;41.65;;;4.60;99.90;;;;;;5002989;28;20404;-81
2023/01/03 11:18:41;;;;;;;77.10;34.60;;;4.60;99.90;;;;;;4996665;28;20153;-80
2023/01/03 11:21:22;;;;;;;80.43;40.97;;;4.70;99.90;;;;;;4996527;28;20426;-79
2023/01/03 11:24:22;;;;;;;75.43;38.20;;;4.80;99.90;;;;;;4997127;28;20042;-79
2023/01/03 11:26:53;;;;;;;64.07;36.05;;;4.80;99.90;;;;;;4997696;28;20041;-80
2023/01/03 11:29:42;;;;;;;80.97;38.83;;;4.90;99.90;;;;;;4999088;28;20133;-80
2023/01/03 11:32:20;;;;;;;84.47;36.08;;;4.90;99.90;;;;;;4996518;28;20107;-79
2023/01/03 11:35:08;;;;;;;77.13;40.10;;;5.00;99.90;;;;;;5001093;28;20408;-80
2023/01/03 11:38:02;;;;;;;83.07;36.78;;;5.00;99.90;;;;;;4997273;28;20112;-81
2023/01/03 11:40:52;;;;;;;74.32;38.63;;;5.00;99.90;;;;;;5002496;28;20057;-84
2023/01/03 11:43:51;;;;;;;68.18;36.78;;;5.10;99.90;;;;;;4996812;28;20038;-81
2023/01/03 11:46:39;;;;;;;72.47;39.25;;;5.10;99.90;;;;;;5018036;28;20058;-82
2023/01/03 11:49:17;;;;;;;72.97;36.50;;;5.10;99.90;;;;;;4991695;28;20050;-81
2023/01/03 11:52:17;;;;;;;75.80;41.83;;;5.20;99.90;;;;;;5018585;28;20128;-82
2023/01/03 11:54:53;;;;;;;74.65;36.25;;;5.20;99.90;;;;;;5024581;28;20048;-81
2023/01/03 11:57:41;;;;;;;74.97;40.75;;;5.20;99.90;;;;;;5004092;28;20120;-80
2023/01/03 12:00:22;;;;;;;68.95;35.53;;;5.30;99.90;;;;;;5005860;28;20098;-79
2023/01/03 12:02:57;;;;;;;86.15;40.83;;;5.30;99.90;;;;;;5003999;28;20034;-80
2023/01/03 12:05:50;;;;;;;81.93;38.72;;;5.30;99.90;;;;;;4994396;28;20072;-80
2023/01/03 12:08:41;;;;;;;69.53;39.05;;;5.40;99.90;;;;;;5006459;28;20526;-80
2023/01/03 12:11:39;;;;;;;68.45;38.67;;;5.40;99.90;;;;;;4989875;28;20124;-81
2023/01/03 12:14:16;;;;;;;72.20;40.38;;;5.40;99.90;;;;;;5000770;28;20042;-81
2023/01/03 12:16:51;;;;;;;70.47;35.05;;;5.40;99.90;;;;;;5012605;28;20049;-81
2023/01/03 12:19:32;;;;;;;78.38;38.28;;;5.40;99.90;;;;;;5005223;28;20057;-81
2023/01/03 12:22:05;;;;;;;71.85;36.63;;;5.50;99.90;;;;;;5005921;28;20077;-80
2023/01/03 12:24:34;;;;;;;66.10;35.65;;;5.50;99.90;;;;;;5006018;28;20919;-81
2023/01/03 12:27:10;;;;;;;68.07;34.97;;;5.50;99.90;;;;;;5005167;28;20069;-81
2023/01/03 12:29:58;;;;;;;66.50;35.58;;;5.50;99.90;;;;;;5006257;28;20072;-81
2023/01/03 12:32:50;;;;;;;84.80;37.05;;;5.60;99.90;;;;;;5014560;28;20060;-81
2023/01/03 12:35:32;;;;;;;61.55;32.40;;;5.60;99.90;;;;;;5015742;28;20041;-81
2023/01/03 12:37:58;;;;;;;77.10;36.58;;;5.70;99.90;;;;;;5004303;28;20301;-81
2023/01/03 12:40:39;;;;;;;58.35;31.55;;;5.60;99.90;;;;;;5005011;28;20041;-81
2023/01/03 12:43:20;;;;;;;58.45;34.80;;;5.70;99.90;;;;;;5000246;28;20033;-82
2023/01/03 12:45:50;;;;;;;67.78;33.30;;;5.70;99.90;;;;;;5020836;28;20045;-81
2023/01/03 12:48:22;;;;;;;59.60;32.40;;;5.80;99.90;;;;;;5012174;28;20069;-82
2023/01/03 12:50:49;;;;;;;64.88;33.17;;;5.80;99.90;;;;;;5004587;28;20059;-81
2023/01/03 12:53:29;;;;;;;52.53;30.67;;;5.80;99.90;;;;;;5005701;28;20104;-81
2023/01/03 12:56:02;;;;;;;62.65;30.58;;;5.80;99.90;;;;;;4987143;28;20488;-81
2023/01/03 12:58:52;;;;;;;67.22;34.90;;;5.80;99.90;;;;;;5005488;28;20492;-82
2023/01/03 13:01:41;;;;;;;62.30;30.88;;;5.90;99.90;;;;;;5002231;28;20509;-81
2023/01/03 13:04:10;;;;;;;78.07;31.98;;;5.90;99.90;;;;;;4986239;28;20073;-81
2023/01/03 13:06:45;;;;;;;56.38;30.23;;;5.90;99.90;;;;;;4992850;28;20038;-81
2023/01/03 13:09:21;;;;;;;54.35;28.67;;;5.90;99.90;;;;;;5001723;28;20053;-81
2023/01/03 13:11:53;;;;;;;61.17;30.30;;;6.00;99.90;;;;;;5001567;28;20042;-81
2023/01/03 13:14:22;;;;;;;54.83;27.67;;;6.00;99.90;;;;;;4997954;28;20056;-81
2023/01/03 13:16:52;;;;;;;77.60;29.30;;;6.00;99.90;;;;;;4995857;28;20038;-84
2023/01/03 13:19:21;;;;;;;51.90;28.17;;;6.10;99.90;;;;;;4991487;28;20045;-80
2023/01/03 13:21:52;;;;;;;49.70;26.30;;;6.10;99.90;;;;;;5001335;28;20390;-80
2023/01/03 13:24:45;;;;;;;64.13;28.92;;;6.10;99.90;;;;;;4991225;28;20054;-80
2023/01/03 13:27:19;;;;;;;59.58;27.98;;;6.10;99.90;;;;;;5004054;28;20060;-80
2023/01/03 13:29:48;;;;;;;56.03;26.40;;;6.20;99.90;;;;;;4993566;28;20507;-77
2023/01/03 13:32:24;;;;;;;71.25;30.05;;;6.20;99.90;;;;;;5001100;28;20077;-78
2023/01/03 13:34:55;;;;;;;55.83;30.23;;;6.20;99.90;;;;;;5003282;28;20412;-78
2023/01/03 13:37:21;;;;;;;54.78;27.15;;;6.30;99.90;;;;;;5003959;28;20052;-78
2023/01/03 13:39:49;;;;;;;54.40;28.80;;;6.30;99.90;;;;;;5003805;28;20046;-77
2023/01/03 13:42:36;;;;;;;62.38;29.23;;;6.30;99.90;;;;;;5002881;28;20046;-78
2023/01/03 13:45:14;;;;;;;61.45;29.38;;;6.40;99.90;;;;;;5002104;28;20042;-77
2023/01/03 13:47:48;;;;;;;62.03;29.52;;;6.40;99.90;;;;;;5004055;28;20096;-78
2023/01/03 13:50:35;;;;;;;65.30;32.25;;;6.40;99.90;;;;;;4995347;28;20041;-78
2023/01/03 13:53:04;;;;;;;62.53;28.52;;;6.40;99.90;;;;;;5001440;28;20145;-79
2023/01/03 13:55:35;;;;;;;67.88;31.30;;;6.40;99.90;;;;;;4988190;28;20145;-79
2023/01/03 13:58:22;;;;;;;55.08;27.83;;;6.40;99.90;;;;;;4987145;28;20070;-79
2023/01/03 14:00:47;;;;;;;49.38;26.55;;;6.50;99.90;;;;;;4987311;28;20062;-79
2023/01/03 14:03:49;;;;;;;50.90;26.27;;;6.50;99.90;;;;;;5001649;28;20396;-80
2023/01/03 14:06:38;;;;;;;49.20;24.38;;;6.50;99.90;;;;;;5008588;28;20045;-79
2023/01/03 14:09:24;;;;;;;57.35;27.33;;;6.50;99.90;;;;;;4990223;28;20396;-79
2023/01/03 14:12:10;;;;;;;46.58;24.98;;;6.60;99.90;;;;;;5007558;28;20050;-79
2023/01/03 14:14:39;;;;;;;53.05;24.35;;;6.60;99.90;;;;;;5004968;28;20076;-79
2023/01/03 14:17:14;;;;;;;56.75;24.73;;;6.60;99.90;;;;;;4987885;28;20077;-79
2023/01/03 14:19:41;;;;;;;45.47;22.52;;;6.70;99.90;;;;;;4988588;28;20097;-79
2023/01/03 14:22:20;;;;;;;56.17;27.58;;;6.70;99.90;;;;;;4993882;28;20448;-78
2023/01/03 14:24:51;;;;;;;42.92;24.92;;;6.70;99.90;;;;;;4993835;28;20038;-78
2023/01/03 14:27:19;;;;;;;48.40;23.95;;;6.70;99.90;;;;;;4998042;28;20069;-78
2023/01/03 14:29:52;;;;;;;44.72;22.50;;;6.70;99.90;;;;;;4999350;28;20061;-79